sensor_id;sensor_type;location;lat;lon;timestamp;pressure;altitude;pressure_sealevel;temperature;humidity
71770;BME280;66386;52.122;5.420;2023-04-28T00:02:22;101534.28;;;8.98;55.47
71770;BME280;66386;52.122;5.420;2023-04-28T00:04:49;101544.53;;;8.98;55.22
71770;BME280;66386;52.122;5.420;2023-04-28T00:07:16;101552.28;;;8.95;55.32
71770;BME280;66386;52.122;5.420;2023-04-28T00:09:42;101544.59;;;8.95;55.41
71770;BME280;66386;52.122;5.420;2023-04-28T00:12:09;101547.13;;;8.97;55.59
71770;BME280;66386;52.122;5.420;2023-04-28T00:14:35;101530.06;;;8.94;55.28
71770;BME280;66386;52.122;5.420;2023-04-28T00:17:02;101523.28;;;8.91;55.39
71770;BME280;66386;52.122;5.420;2023-04-28T00:19:28;101516.50;;;8.87;55.72
71770;BME280;66386;52.122;5.420;2023-04-28T00:21:55;101511.47;;;8.83;55.86
71770;BME280;66386;52.122;5.420;2023-04-28T00:24:21;101505.53;;;8.82;55.53
71770;BME280;66386;52.122;5.420;2023-04-28T00:26:48;101502.06;;;8.83;55.51
71770;BME280;66386;52.122;5.420;2023-04-28T00:29:14;101494.41;;;8.82;55.60
71770;BME280;66386;52.122;5.420;2023-04-28T00:31:41;101488.44;;;8.81;55.47
71770;BME280;66386;52.122;5.420;2023-04-28T00:34:07;101484.97;;;8.84;55.44
71770;BME280;66386;52.122;5.420;2023-04-28T00:36:34;101485.78;;;8.86;55.81
71770;BME280;66386;52.122;5.420;2023-04-28T00:39:01;101480.66;;;8.86;55.92
71770;BME280;66386;52.122;5.420;2023-04-28T00:41:27;101476.44;;;8.85;55.72
71770;BME280;66386;52.122;5.420;2023-04-28T00:43:53;101487.47;;;8.87;55.68
71770;BME280;66386;52.122;5.420;2023-04-28T00:46:29;101489.19;;;8.88;55.43
71770;BME280;66386;52.122;5.420;2023-04-28T00:48:56;101489.22;;;8.86;55.53
71770;BME280;66386;52.122;5.420;2023-04-28T00:51:23;101476.44;;;8.83;55.62
71770;BME280;66386;52.122;5.420;2023-04-28T00:53:50;101484.16;;;8.82;55.80
71770;BME280;66386;52.122;5.420;2023-04-28T00:56:16;101476.47;;;8.82;55.68
71770;BME280;66386;52.122;5.420;2023-04-28T00:58:43;101473.94;;;8.80;55.66
71770;BME280;66386;52.122;5.420;2023-04-28T01:01:09;101473.09;;;8.80;55.89
71770;BME280;66386;52.122;5.420;2023-04-28T01:03:39;101462.03;;;8.78;56.33
71770;BME280;66386;52.122;5.420;2023-04-28T01:06:07;101462.94;;;8.75;56.37
71770;BME280;66386;52.122;5.420;2023-04-28T01:08:35;101451.84;;;8.73;56.92
71770;BME280;66386;52.122;5.420;2023-04-28T01:11:02;101459.50;;;8.74;56.75
71770;BME280;66386;52.122;5.420;2023-04-28T01:13:29;101447.63;;;8.72;56.76
71770;BME280;66386;52.122;5.420;2023-04-28T01:15:55;101446.69;;;8.74;56.73
71770;BME280;66386;52.122;5.420;2023-04-28T01:18:22;101459.50;;;8.74;56.89
71770;BME280;66386;52.122;5.420;2023-04-28T01:20:49;101455.25;;;8.75;57.18
71770;BME280;66386;52.122;5.420;2023-04-28T01:23:16;101456.13;;;8.74;57.36
71770;BME280;66386;52.122;5.420;2023-04-28T01:25:43;101452.78;;;8.70;57.26
71770;BME280;66386;52.122;5.420;2023-04-28T01:28:10;101450.22;;;8.70;57.47
71770;BME280;66386;52.122;5.420;2023-04-28T01:30:36;101450.19;;;8.72;57.19
71770;BME280;66386;52.122;5.420;2023-04-28T01:33:03;101446.78;;;8.70;57.59
71770;BME280;66386;52.122;5.420;2023-04-28T01:35:30;101441.69;;;8.68;57.57
71770;BME280;66386;52.122;5.420;2023-04-28T01:37:56;101434.00;;;8.68;57.21
71770;BME280;66386;52.122;5.420;2023-04-28T01:40:23;101434.84;;;8.70;57.16
71770;BME280;66386;52.122;5.420;2023-04-28T01:42:49;101429.78;;;8.67;57.33
71770;BME280;66386;52.122;5.420;2023-04-28T01:45:16;101423.06;;;8.62;57.81
71770;BME280;66386;52.122;5.420;2023-04-28T01:47:42;101418.75;;;8.62;57.39
71770;BME280;66386;52.122;5.420;2023-04-28T01:50:09;101411.91;;;8.63;57.81
71770;BME280;66386;52.122;5.420;2023-04-28T01:52:36;101403.41;;;8.61;57.70
71770;BME280;66386;52.122;5.420;2023-04-28T01:55:03;101405.97;;;8.61;57.67
71770;BME280;66386;52.122;5.420;2023-04-28T01:57:29;101400.91;;;8.58;57.34
71770;BME280;66386;52.122;5.420;2023-04-28T01:59:56;101403.47;;;8.58;57.57
71770;BME280;66386;52.122;5.420;2023-04-28T02:02:24;101405.28;;;8.52;57.57
71770;BME280;66386;52.122;5.420;2023-04-28T02:04:50;101397.53;;;8.55;57.26
71770;BME280;66386;52.122;5.420;2023-04-28T02:07:17;101396.69;;;8.55;57.53
71770;BME280;66386;52.122;5.420;2023-04-28T02:09:43;101406.91;;;8.56;57.63
71770;BME280;66386;52.122;5.420;2023-04-28T02:12:10;101400.09;;;8.55;57.53
71770;BME280;66386;52.122;5.420;2023-04-28T02:14:36;101403.47;;;8.58;57.61
71770;BME280;66386;52.122;5.420;2023-04-28T02:17:03;101389.84;;;8.55;57.63
71770;BME280;66386;52.122;5.420;2023-04-28T02:19:30;101396.69;;;8.55;57.84
71770;BME280;66386;52.122;5.420;2023-04-28T02:21:57;101385.56;;;8.56;57.60
71770;BME280;66386;52.122;5.420;2023-04-28T02:24:23;101383.91;;;8.53;57.89
71770;BME280;66386;52.122;5.420;2023-04-28T02:26:49;101378.84;;;8.50;58.10
71770;BME280;66386;52.122;5.420;2023-04-28T02:29:16;101375.44;;;8.50;57.83
71770;BME280;66386;52.122;5.420;2023-04-28T02:31:42;101372.06;;;8.48;58.15
71770;BME280;66386;52.122;5.420;2023-04-28T02:34:09;101361.84;;;8.46;58.45
71770;BME280;66386;52.122;5.420;2023-04-28T02:36:36;101357.59;;;8.45;58.22
71770;BME280;66386;52.122;5.420;2023-04-28T02:39:04;101361.81;;;8.48;58.46
71770;BME280;66386;52.122;5.420;2023-04-28T02:41:30;101363.53;;;8.47;58.08
71770;BME280;66386;52.122;5.420;2023-04-28T02:43:57;101362.72;;;8.45;58.35
71770;BME280;66386;52.122;5.420;2023-04-28T02:46:23;101353.31;;;8.46;58.18
71770;BME280;66386;52.122;5.420;2023-04-28T02:48:50;101354.16;;;8.46;58.34
71770;BME280;66386;52.122;5.420;2023-04-28T02:51:16;101351.59;;;8.46;58.50
71770;BME280;66386;52.122;5.420;2023-04-28T02:53:42;101344.78;;;8.44;58.59
71770;BME280;66386;52.122;5.420;2023-04-28T02:56:09;101345.66;;;8.44;58.29
71770;BME280;66386;52.122;5.420;2023-04-28T02:58:35;101331.97;;;8.44;58.42
71770;BME280;66386;52.122;5.420;2023-04-28T03:01:02;101317.53;;;8.41;58.54
71770;BME280;66386;52.122;5.420;2023-04-28T03:03:28;101314.97;;;8.41;58.73
71770;BME280;66386;52.122;5.420;2023-04-28T03:05:55;101316.66;;;8.41;59.06
71770;BME280;66386;52.122;5.420;2023-04-28T03:08:22;101324.34;;;8.41;59.06
71770;BME280;66386;52.122;5.420;2023-04-28T03:10:48;101311.53;;;8.41;59.10
71770;BME280;66386;52.122;5.420;2023-04-28T03:13:15;101314.09;;;8.41;58.80
71770;BME280;66386;52.122;5.420;2023-04-28T03:15:41;101308.19;;;8.38;58.64
71770;BME280;66386;52.122;5.420;2023-04-28T03:18:08;101306.47;;;8.37;58.79
71770;BME280;66386;52.122;5.420;2023-04-28T03:20:34;101307.38;;;8.35;58.78
71770;BME280;66386;52.122;5.420;2023-04-28T03:23:01;101295.44;;;8.35;58.76
71770;BME280;66386;52.122;5.420;2023-04-28T03:25:28;101294.56;;;8.35;59.09
71770;BME280;66386;52.122;5.420;2023-04-28T03:27:54;101305.75;;;8.32;59.29
71770;BME280;66386;52.122;5.420;2023-04-28T03:30:21;101287.81;;;8.32;59.44
71770;BME280;66386;52.122;5.420;2023-04-28T03:32:47;101286.97;;;8.32;59.31
71770;BME280;66386;52.122;5.420;2023-04-28T03:35:14;101280.13;;;8.32;59.42
71770;BME280;66386;52.122;5.420;2023-04-28T03:37:40;101281.81;;;8.33;59.29
71770;BME280;66386;52.122;5.420;2023-04-28T03:40:07;101275.84;;;8.33;59.74
71770;BME280;66386;52.122;5.420;2023-04-28T03:42:34;101268.19;;;8.31;59.83
71770;BME280;66386;52.122;5.420;2023-04-28T03:45:01;101268.25;;;8.28;59.75
71770;BME280;66386;52.122;5.420;2023-04-28T03:47:27;101269.94;;;8.29;59.88
71770;BME280;66386;52.122;5.420;2023-04-28T03:49:54;101276.75;;;8.30;59.99
71770;BME280;66386;52.122;5.420;2023-04-28T03:52:20;101275.97;;;8.27;60.06
71770;BME280;66386;52.122;5.420;2023-04-28T03:54:46;101272.50;;;8.29;60.19
71770;BME280;66386;52.122;5.420;2023-04-28T03:57:13;101278.47;;;8.30;60.13
71770;BME280;66386;52.122;5.420;2023-04-28T03:59:39;101276.78;;;8.29;60.10
71770;BME280;66386;52.122;5.420;2023-04-28T04:02:06;101262.31;;;8.26;60.20
71770;BME280;66386;52.122;5.420;2023-04-28T04:04:32;101263.22;;;8.25;60.40
71770;BME280;66386;52.122;5.420;2023-04-28T04:07:00;101264.06;;;8.24;60.92
71770;BME280;66386;52.122;5.420;2023-04-28T04:09:26;101246.16;;;8.24;60.81
71770;BME280;66386;52.122;5.420;2023-04-28T04:11:53;101249.56;;;8.23;61.21
71770;BME280;66386;52.122;5.420;2023-04-28T04:14:19;101250.44;;;8.24;61.27
71770;BME280;66386;52.122;5.420;2023-04-28T04:16:46;101243.59;;;8.24;61.43
71770;BME280;66386;52.122;5.420;2023-04-28T04:19:13;101237.63;;;8.24;61.54
71770;BME280;66386;52.122;5.420;2023-04-28T04:21:40;101240.22;;;8.22;61.68
71770;BME280;66386;52.122;5.420;2023-04-28T04:24:06;101228.28;;;8.21;61.73
71770;BME280;66386;52.122;5.420;2023-04-28T04:26:33;101230.81;;;8.23;61.67
71770;BME280;66386;52.122;5.420;2023-04-28T04:28:59;101231.66;;;8.23;62.04
71770;BME280;66386;52.122;5.420;2023-04-28T04:31:26;101230.00;;;8.20;62.18
71770;BME280;66386;52.122;5.420;2023-04-28T04:33:53;101230.81;;;8.23;61.72
71770;BME280;66386;52.122;5.420;2023-04-28T04:36:19;101235.03;;;8.25;61.72
71770;BME280;66386;52.122;5.420;2023-04-28T04:38:46;101230.72;;;8.27;62.07
71770;BME280;66386;52.122;5.420;2023-04-28T04:41:13;101225.56;;;8.29;62.30
71770;BME280;66386;52.122;5.420;2023-04-28T04:43:40;101211.97;;;8.27;62.16
71770;BME280;66386;52.122;5.420;2023-04-28T04:46:06;101217.00;;;8.30;62.45
71770;BME280;66386;52.122;5.420;2023-04-28T04:48:33;101204.19;;;8.31;62.30
71770;BME280;66386;52.122;5.420;2023-04-28T04:50:59;101215.25;;;8.32;62.33
71770;BME280;66386;52.122;5.420;2023-04-28T04:53:26;101216.94;;;8.33;62.24
71770;BME280;66386;52.122;5.420;2023-04-28T04:55:52;101210.06;;;8.35;62.34
71770;BME280;66386;52.122;5.420;2023-04-28T04:58:19;101210.88;;;8.37;62.20
71770;BME280;66386;52.122;5.420;2023-04-28T05:00:46;101209.09;;;8.41;62.26
71770;BME280;66386;52.122;5.420;2023-04-28T05:03:12;101201.38;;;8.42;62.73
71770;BME280;66386;52.122;5.420;2023-04-28T05:05:39;101197.09;;;8.44;62.58
71770;BME280;66386;52.122;5.420;2023-04-28T05:08:06;101193.66;;;8.44;62.75
71770;BME280;66386;52.122;5.420;2023-04-28T05:10:32;101197.94;;;8.45;62.91
71770;BME280;66386;52.122;5.420;2023-04-28T05:12:59;101197.88;;;8.48;63.06
71770;BME280;66386;52.122;5.420;2023-04-28T05:15:25;101192.69;;;8.49;63.22
71770;BME280;66386;52.122;5.420;2023-04-28T05:17:52;101195.19;;;8.52;63.02
71770;BME280;66386;52.122;5.420;2023-04-28T05:20:19;101189.19;;;8.53;63.06
71770;BME280;66386;52.122;5.420;2023-04-28T05:22:48;101189.16;;;8.55;63.50
71770;BME280;66386;52.122;5.420;2023-04-28T05:25:15;101197.66;;;8.57;63.62
71770;BME280;66386;52.122;5.420;2023-04-28T05:27:41;101193.38;;;8.58;63.62
71770;BME280;66386;52.122;5.420;2023-04-28T05:30:09;101205.28;;;8.60;63.77
71770;BME280;66386;52.122;5.420;2023-04-28T05:32:36;101200.88;;;8.65;63.96
71770;BME280;66386;52.122;5.420;2023-04-28T05:35:03;101208.53;;;8.67;64.04
71770;BME280;66386;52.122;5.420;2023-04-28T05:37:30;101203.34;;;8.70;64.67
71770;BME280;66386;52.122;5.420;2023-04-28T05:39:56;101205.94;;;8.68;65.43
71770;BME280;66386;52.122;5.420;2023-04-28T05:42:23;101211.06;;;8.68;66.34
71770;BME280;66386;52.122;5.420;2023-04-28T05:44:49;101213.69;;;8.65;66.94
71770;BME280;66386;52.122;5.420;2023-04-28T05:47:16;101202.66;;;8.63;67.41
71770;BME280;66386;52.122;5.420;2023-04-28T05:49:42;101199.19;;;8.64;68.33
71770;BME280;66386;52.122;5.420;2023-04-28T05:52:09;101200.97;;;8.62;69.26
71770;BME280;66386;52.122;5.420;2023-04-28T05:54:35;101201.00;;;8.61;69.84
71770;BME280;66386;52.122;5.420;2023-04-28T05:57:01;101198.34;;;8.64;70.62
71770;BME280;66386;52.122;5.420;2023-04-28T05:59:28;101199.28;;;8.61;71.00
71770;BME280;66386;52.122;5.420;2023-04-28T06:01:55;101213.09;;;8.54;72.01
71770;BME280;66386;52.122;5.420;2023-04-28T06:04:22;101210.53;;;8.54;72.56
71770;BME280;66386;52.122;5.420;2023-04-28T06:06:51;101205.31;;;8.59;72.85
71770;BME280;66386;52.122;5.420;2023-04-28T06:09:17;101210.34;;;8.63;73.12
71770;BME280;66386;52.122;5.420;2023-04-28T06:11:44;101211.97;;;8.67;73.18
71770;BME280;66386;52.122;5.420;2023-04-28T06:14:11;101206.75;;;8.70;73.30
71770;BME280;66386;52.122;5.420;2023-04-28T06:16:37;101200.81;;;8.68;73.47
71770;BME280;66386;52.122;5.420;2023-04-28T06:19:03;101188.94;;;8.64;73.84
71770;BME280;66386;52.122;5.420;2023-04-28T06:21:30;101179.63;;;8.62;74.62
71770;BME280;66386;52.122;5.420;2023-04-28T06:23:57;101173.56;;;8.64;74.91
71770;BME280;66386;52.122;5.420;2023-04-28T06:26:24;101175.22;;;8.67;75.24
71770;BME280;66386;52.122;5.420;2023-04-28T06:28:50;101170.81;;;8.73;75.29
71770;BME280;66386;52.122;5.420;2023-04-28T06:31:17;101168.06;;;8.81;75.05
71770;BME280;66386;52.122;5.420;2023-04-28T06:33:44;101170.41;;;8.89;75.35
71770;BME280;66386;52.122;5.420;2023-04-28T06:36:16;101169.44;;;8.95;75.29
71770;BME280;66386;52.122;5.420;2023-04-28T06:38:43;101171.88;;;8.99;75.03
71770;BME280;66386;52.122;5.420;2023-04-28T06:41:10;101173.53;;;9.02;75.51
71770;BME280;66386;52.122;5.420;2023-04-28T06:43:37;101167.41;;;9.07;75.45
71770;BME280;66386;52.122;5.420;2023-04-28T06:46:03;101159.50;;;9.15;75.75
71770;BME280;66386;52.122;5.420;2023-04-28T06:48:30;101167.03;;;9.23;75.98
71770;BME280;66386;52.122;5.420;2023-04-28T06:50:56;101173.69;;;9.30;75.93
71770;BME280;66386;52.122;5.420;2023-04-28T06:53:23;101170.19;;;9.33;75.85
71770;BME280;66386;52.122;5.420;2023-04-28T06:55:49;101160.72;;;9.35;75.99
71770;BME280;66386;52.122;5.420;2023-04-28T06:58:16;101153.81;;;9.37;76.01
71770;BME280;66386;52.122;5.420;2023-04-28T07:00:43;101159.66;;;9.43;76.50
71770;BME280;66386;52.122;5.420;2023-04-28T07:03:10;101153.56;;;9.48;76.76
71770;BME280;66386;52.122;5.420;2023-04-28T07:05:37;101152.53;;;9.53;76.89
71770;BME280;66386;52.122;5.420;2023-04-28T07:08:04;101145.53;;;9.58;77.19
71770;BME280;66386;52.122;5.420;2023-04-28T07:10:31;101144.50;;;9.66;77.04
71770;BME280;66386;52.122;5.420;2023-04-28T07:12:57;101151.94;;;9.75;77.46
71770;BME280;66386;52.122;5.420;2023-04-28T07:15:27;101154.41;;;9.78;78.35
71770;BME280;66386;52.122;5.420;2023-04-28T07:17:54;101150.78;;;9.85;78.99
71770;BME280;66386;52.122;5.420;2023-04-28T07:20:21;101142.88;;;9.91;79.14
71770;BME280;66386;52.122;5.420;2023-04-28T07:22:47;101155.44;;;10.02;79.92
71770;BME280;66386;52.122;5.420;2023-04-28T07:25:14;101158.63;;;10.09;79.48
71770;BME280;66386;52.122;5.420;2023-04-28T07:27:40;101156.50;;;10.23;79.55
71770;BME280;66386;52.122;5.420;2023-04-28T07:30:07;101166.66;;;10.28;79.75
71770;BME280;66386;52.122;5.420;2023-04-28T07:32:52;101152.75;;;10.35;79.80
71770;BME280;66386;52.122;5.420;2023-04-28T07:35:18;101148.03;;;10.50;79.97
71770;BME280;66386;52.122;5.420;2023-04-28T07:37:45;101157.06;;;10.61;79.81
71770;BME280;66386;52.122;5.420;2023-04-28T07:40:12;101155.97;;;10.69;79.78
71770;BME280;66386;52.122;5.420;2023-04-28T07:42:38;101159.31;;;10.72;80.44
71770;BME280;66386;52.122;5.420;2023-04-28T07:45:05;101156.63;;;10.75;80.36
71770;BME280;66386;52.122;5.420;2023-04-28T07:47:32;101154.72;;;10.82;80.13
71770;BME280;66386;52.122;5.420;2023-04-28T07:49:59;101144.75;;;10.98;80.29
71770;BME280;66386;52.122;5.420;2023-04-28T07:52:28;101137.63;;;11.06;80.16
71770;BME280;66386;52.122;5.420;2023-04-28T07:54:54;101132.78;;;11.22;80.53
71770;BME280;66386;52.122;5.420;2023-04-28T07:57:21;101144.97;;;11.42;80.72
71770;BME280;66386;52.122;5.420;2023-04-28T07:59:48;101136.25;;;11.46;80.07
71770;BME280;66386;52.122;5.420;2023-04-28T08:02:14;101135.16;;;11.52;80.21
71770;BME280;66386;52.122;5.420;2023-04-28T08:04:41;101142.50;;;11.63;80.04
71770;BME280;66386;52.122;5.420;2023-04-28T08:07:08;101135.38;;;11.69;79.90
71770;BME280;66386;52.122;5.420;2023-04-28T08:09:34;101125.88;;;11.72;80.87
71770;BME280;66386;52.122;5.420;2023-04-28T08:12:01;101123.69;;;11.61;79.57
71770;BME280;66386;52.122;5.420;2023-04-28T08:14:27;101128.06;;;11.59;79.81
71770;BME280;66386;52.122;5.420;2023-04-28T08:16:55;101129.06;;;11.55;80.76
71770;BME280;66386;52.122;5.420;2023-04-28T08:19:22;101125.78;;;11.51;80.99
71770;BME280;66386;52.122;5.420;2023-04-28T08:21:48;101133.50;;;11.51;81.79
71770;BME280;66386;52.122;5.420;2023-04-28T08:24:15;101142.31;;;11.44;81.15
71770;BME280;66386;52.122;5.420;2023-04-28T08:26:42;101139.81;;;11.42;81.62
71770;BME280;66386;52.122;5.420;2023-04-28T08:29:08;101142.63;;;11.34;81.93
71770;BME280;66386;52.122;5.420;2023-04-28T08:31:34;101140.13;;;11.33;82.63
71770;BME280;66386;52.122;5.420;2023-04-28T08:34:01;101147.88;;;11.31;83.10
71770;BME280;66386;52.122;5.420;2023-04-28T08:36:31;101144.38;;;11.34;83.50
71770;BME280;66386;52.122;5.420;2023-04-28T08:38:59;101133.38;;;11.30;83.97
71770;BME280;66386;52.122;5.420;2023-04-28T08:41:31;101130.69;;;11.33;84.32
71770;BME280;66386;52.122;5.420;2023-04-28T08:43:58;101124.84;;;11.52;84.77
71770;BME280;66386;52.122;5.420;2023-04-28T08:46:26;101127.50;;;11.74;84.56
71770;BME280;66386;52.122;5.420;2023-04-28T08:48:58;101126.91;;;11.90;85.19
71770;BME280;66386;52.122;5.420;2023-04-28T08:51:32;101133.19;;;12.06;84.56
71770;BME280;66386;52.122;5.420;2023-04-28T08:54:01;101135.66;;;12.09;84.46
71770;BME280;66386;52.122;5.420;2023-04-28T08:56:50;101128.72;;;12.11;84.33
71770;BME280;66386;52.122;5.420;2023-04-28T08:59:18;101118.59;;;12.07;84.91
71770;BME280;66386;52.122;5.420;2023-04-28T09:01:47;101131.53;;;12.05;85.34
71770;BME280;66386;52.122;5.420;2023-04-28T09:04:18;101127.56;;;11.96;85.73
71770;BME280;66386;52.122;5.420;2023-04-28T09:06:46;101131.91;;;11.94;85.53
71770;BME280;66386;52.122;5.420;2023-04-28T09:09:27;101130.16;;;11.96;85.45
71770;BME280;66386;52.122;5.420;2023-04-28T09:12:00;101127.38;;;12.01;85.69
71770;BME280;66386;52.122;5.420;2023-04-28T09:14:28;101119.84;;;11.96;85.89
71770;BME280;66386;52.122;5.420;2023-04-28T09:16:55;101129.34;;;11.94;86.09
71770;BME280;66386;52.122;5.420;2023-04-28T09:19:22;101115.66;;;11.92;86.16
71770;BME280;66386;52.122;5.420;2023-04-28T09:21:56;101112.38;;;11.88;86.33
71770;BME280;66386;52.122;5.420;2023-04-28T09:27:01;101114.09;;;11.88;86.59
71770;BME280;66386;52.122;5.420;2023-04-28T09:29:31;101120.78;;;11.94;86.56
71770;BME280;66386;52.122;5.420;2023-04-28T09:32:30;101116.69;;;11.88;86.82
71770;BME280;66386;52.122;5.420;2023-04-28T09:34:57;101115.63;;;11.94;87.38
71770;BME280;66386;52.122;5.420;2023-04-28T09:37:25;101120.59;;;11.98;87.40
71770;BME280;66386;52.122;5.420;2023-04-28T09:39:53;101119.59;;;12.02;87.19
71770;BME280;66386;52.122;5.420;2023-04-28T09:42:33;101115.13;;;12.08;87.62
71770;BME280;66386;52.122;5.420;2023-04-28T09:45:08;101120.91;;;12.13;87.49
71770;BME280;66386;52.122;5.420;2023-04-28T09:47:40;101107.91;;;12.16;87.97
71770;BME280;66386;52.122;5.420;2023-04-28T09:50:09;101114.69;;;12.18;88.30
71770;BME280;66386;52.122;5.420;2023-04-28T09:52:37;101109.28;;;12.25;88.84
71770;BME280;66386;52.122;5.420;2023-04-28T09:55:05;101104.69;;;12.33;88.88
71770;BME280;66386;52.122;5.420;2023-04-28T09:57:38;101101.72;;;12.42;89.09
71770;BME280;66386;52.122;5.420;2023-04-28T10:00:06;101109.19;;;12.48;89.15
71770;BME280;66386;52.122;5.420;2023-04-28T10:02:36;101102.38;;;12.47;89.15
71770;BME280;66386;52.122;5.420;2023-04-28T10:05:07;101103.28;;;12.46;89.55
71770;BME280;66386;52.122;5.420;2023-04-28T10:07:36;101094.53;;;12.50;89.94
71770;BME280;66386;52.122;5.420;2023-04-28T10:10:03;101097.75;;;12.55;90.11
71770;BME280;66386;52.122;5.420;2023-04-28T10:12:31;101106.28;;;12.57;90.06
71770;BME280;66386;52.122;5.420;2023-04-28T10:14:58;101105.31;;;12.60;89.92
71770;BME280;66386;52.122;5.420;2023-04-28T10:17:25;101099.16;;;12.63;90.25
71770;BME280;66386;52.122;5.420;2023-04-28T10:19:53;101101.75;;;12.63;90.07
71770;BME280;66386;52.122;5.420;2023-04-28T10:25:26;101101.63;;;12.66;90.25
71770;BME280;66386;52.122;5.420;2023-04-28T10:27:53;101098.22;;;12.65;90.50
71770;BME280;66386;52.122;5.420;2023-04-28T10:30:20;101110.06;;;12.69;90.73
71770;BME280;66386;52.122;5.420;2023-04-28T10:35:43;101102.97;;;12.74;90.51
71770;BME280;66386;52.122;5.420;2023-04-28T10:40:48;101103.31;;;12.87;90.96
71770;BME280;66386;52.122;5.420;2023-04-28T10:56:17;101101.59;;;13.27;90.42
71770;BME280;66386;52.122;5.420;2023-04-28T11:03:51;101108.53;;;13.46;90.31
71770;BME280;66386;52.122;5.420;2023-04-28T11:06:35;101107.09;;;13.59;90.46
71770;BME280;66386;52.122;5.420;2023-04-28T11:14:37;101096.97;;;13.74;89.87
71770;BME280;66386;52.122;5.420;2023-04-28T11:17:10;101093.91;;;13.66;89.39
71770;BME280;66386;52.122;5.420;2023-04-28T11:19:43;101101.50;;;13.50;89.63
71770;BME280;66386;52.122;5.420;2023-04-28T11:22:21;101100.09;;;13.42;90.11
71770;BME280;66386;52.122;5.420;2023-04-28T11:24:59;101094.47;;;13.33;90.79
71770;BME280;66386;52.122;5.420;2023-04-28T11:27:28;101095.16;;;13.38;90.61
71770;BME280;66386;52.122;5.420;2023-04-28T11:29:55;101085.97;;;13.31;90.82
71770;BME280;66386;52.122;5.420;2023-04-28T11:32:32;101087.06;;;13.25;91.30
71770;BME280;66386;52.122;5.420;2023-04-28T11:34:59;101091.78;;;13.36;91.27
71770;BME280;66386;52.122;5.420;2023-04-28T11:37:26;101082.47;;;13.52;91.45
71770;BME280;66386;52.122;5.420;2023-04-28T11:39:53;101088.66;;;13.67;90.89
71770;BME280;66386;52.122;5.420;2023-04-28T11:42:22;101091.53;;;13.80;91.06
71770;BME280;66386;52.122;5.420;2023-04-28T11:44:52;101091.53;;;13.80;90.42
71770;BME280;66386;52.122;5.420;2023-04-28T11:47:32;101086.22;;;13.83;89.75
71770;BME280;66386;52.122;5.420;2023-04-28T11:49:59;101084.69;;;13.79;89.34
71770;BME280;66386;52.122;5.420;2023-04-28T11:52:27;101089.09;;;13.77;89.26
71770;BME280;66386;52.122;5.420;2023-04-28T11:54:55;101086.00;;;13.69;89.54
71770;BME280;66386;52.122;5.420;2023-04-28T11:57:24;101097.38;;;13.65;89.72
71770;BME280;66386;52.122;5.420;2023-04-28T11:59:51;101086.22;;;13.64;89.11
71770;BME280;66386;52.122;5.420;2023-04-28T12:02:25;101093.34;;;13.59;89.44
71770;BME280;66386;52.122;5.420;2023-04-28T12:05:04;101098.22;;;13.65;89.74
71770;BME280;66386;52.122;5.420;2023-04-28T12:07:40;101088.53;;;13.70;88.96
71770;BME280;66386;52.122;5.420;2023-04-28T12:10:12;101086.97;;;13.66;89.12
71770;BME280;66386;52.122;5.420;2023-04-28T12:12:41;101093.63;;;13.72;89.30
71770;BME280;66386;52.122;5.420;2023-04-28T12:15:17;101103.31;;;13.86;89.01
71770;BME280;66386;52.122;5.420;2023-04-28T12:17:46;101103.25;;;13.87;89.12
71770;BME280;66386;52.122;5.420;2023-04-28T12:20:36;101096.03;;;13.94;89.36
71770;BME280;66386;52.122;5.420;2023-04-28T12:23:05;101098.69;;;13.92;88.90
71770;BME280;66386;52.122;5.420;2023-04-28T12:25:32;101102.25;;;13.90;88.49
71770;BME280;66386;52.122;5.420;2023-04-28T12:28:08;101099.59;;;13.91;89.00
71770;BME280;66386;52.122;5.420;2023-04-28T12:30:36;101103.38;;;14.03;89.10
71770;BME280;66386;52.122;5.420;2023-04-28T12:33:25;101112.78;;;14.04;88.31
71770;BME280;66386;52.122;5.420;2023-04-28T12:35:53;101107.41;;;14.09;87.97
71770;BME280;66386;52.122;5.420;2023-04-28T12:38:23;101101.47;;;14.07;88.10
71770;BME280;66386;52.122;5.420;2023-04-28T12:40:50;101108.66;;;14.00;87.77
71770;BME280;66386;52.122;5.420;2023-04-28T12:43:16;101102.25;;;13.90;87.31
71770;BME280;66386;52.122;5.420;2023-04-28T12:45:43;101106.66;;;13.88;87.25
71770;BME280;66386;52.122;5.420;2023-04-28T12:48:09;101106.31;;;13.95;87.61
71770;BME280;66386;52.122;5.420;2023-04-28T12:50:36;101107.84;;;14.00;86.87
71770;BME280;66386;52.122;5.420;2023-04-28T12:53:03;101098.25;;;14.02;87.39
71770;BME280;66386;52.122;5.420;2023-04-28T12:55:30;101099.28;;;14.17;87.47
71770;BME280;66386;52.122;5.420;2023-04-28T12:57:56;101099.41;;;14.32;87.44
71770;BME280;66386;52.122;5.420;2023-04-28T13:00:23;101107.91;;;14.35;87.22
71770;BME280;66386;52.122;5.420;2023-04-28T13:02:50;101108.22;;;14.28;87.50
71770;BME280;66386;52.122;5.420;2023-04-28T13:05:18;101111.84;;;14.24;86.78
71770;BME280;66386;52.122;5.420;2023-04-28T13:07:45;101110.56;;;14.33;86.82
71770;BME280;66386;52.122;5.420;2023-04-28T13:10:15;101108.53;;;14.40;87.39
71770;BME280;66386;52.122;5.420;2023-04-28T13:12:41;101104.94;;;14.60;86.86
71770;BME280;66386;52.122;5.420;2023-04-28T13:15:09;101100.94;;;14.72;86.53
71770;BME280;66386;52.122;5.420;2023-04-28T13:17:35;101105.06;;;14.76;86.87
71770;BME280;66386;52.122;5.420;2023-04-28T13:20:02;101100.03;;;14.73;86.78
71770;BME280;66386;52.122;5.420;2023-04-28T13:22:30;101108.69;;;14.72;86.28
71770;BME280;66386;52.122;5.420;2023-04-28T13:24:56;101109.53;;;14.55;86.51
71770;BME280;66386;52.122;5.420;2023-04-28T13:27:23;101114.31;;;14.45;85.41
71770;BME280;66386;52.122;5.420;2023-04-28T13:29:50;101102.25;;;14.26;85.98
71770;BME280;66386;52.122;5.420;2023-04-28T13:32:16;101105.63;;;14.28;87.39
71770;BME280;66386;52.122;5.420;2023-04-28T13:34:43;101107.31;;;14.29;85.45